Flight Track Log - Related Links

Times and Time Zones

All times are in EDT time to prevent confusion due to time zone crossing. See the N325MR flight status page for this flight to view local times or setup timezone preferences in your user account.

Time Position Orientation Groundspeed Altitude Reporting Facility
EDT Latitude Longitude Course Direction KTS MPH feet Rate Location/Type
Mon 04:39:15 PM 33.3030 -104.4897 74° East  Level FlightAware Approximate
Mon 04:40:15 PM 33.3128 -104.4299 74° East  Level FlightAware Approximate
Mon 04:41:15 PM 33.3353 -104.3754 75° East  Level FlightAware Approximate
Mon 04:42:15 PM 33.3447 -104.3156 75° East  Level FlightAware Approximate
Mon 04:43:15 PM 33.3542 -104.2557 74° East  Level FlightAware Approximate
Mon 04:44:15 PM 33.3726 -104.1989 75° East  Level FlightAware Approximate
Mon 04:45:15 PM 33.3817 -104.1389 74° East  Level FlightAware Approximate
Mon 04:46:15 PM 33.4045 -104.0895 79° East  Level FlightAware Approximate
Mon 04:47:15 PM 33.4129 -104.0314 78° East  Level FlightAware Approximate
Mon 04:48:15 PM 33.4228 -103.9737 80° East  Level FlightAware Approximate
Mon 04:48:58 PM 33.4236 -103.9683 84° East 153 176 12,800  Level Fort Worth Center
Mon 04:49:58 PM 33.4283 -103.9164 81° East 165 190 13,400 600 Climbing Fort Worth Center
Mon 04:50:58 PM 33.4356 -103.8597 84° East 165 190 14,000 700 Climbing Fort Worth Center
Mon 04:51:58 PM 33.4403 -103.8053 84° East 165 190 14,800 750 Climbing Fort Worth Center
Mon 04:52:58 PM 33.4456 -103.7461 87° East 165 190 15,500 650 Climbing Fort Worth Center
Mon 04:53:58 PM 33.4486 -103.6839 77° East 176 203 16,100 600 Climbing Fort Worth Center
Mon 04:54:58 PM 33.4600 -103.6225 69° East 181 208 16,700 450 Climbing Fort Worth Center
Mon 04:55:58 PM 33.4772 -103.5692 71° East 186 214 17,000 100 Climbing Fort Worth Center
Mon 04:56:58 PM 33.4972 -103.5008 79° East 196 226 16,900 -50 Descending Fort Worth Center
Mon 04:57:58 PM 33.5089 -103.4319 81° East 211 243 16,900  Level Fort Worth Center
Mon 04:58:58 PM 33.5189 -103.3578 83° East 221 254 16,900  Level Fort Worth Center
Mon 04:59:58 PM 33.5261 -103.2886 79° East 215 247 16,900  Level Fort Worth Center
Mon 05:00:58 PM 33.5378 -103.2194 87° East 215 247 16,900  Level Fort Worth Center
Mon 05:01:58 PM 33.5406 -103.1575 78° East 201 231 16,900  Level Fort Worth Center
Mon 05:02:58 PM 33.5547 -103.0761 78° East 212 244 16,900  Level Fort Worth Center
Mon 05:03:58 PM 33.5661 -103.0119 83° East 212 244 16,900  Level Fort Worth Center
Mon 05:04:58 PM 33.5731 -102.9453 85° East 212 244 16,900 -200 Level Fort Worth Center
Mon 05:05:58 PM 33.5781 -102.8808 85° East 207 238 16,500 -500 Descending Fort Worth Center
Mon 05:06:58 PM 33.5836 -102.8039 78° East 207 238 15,900 -655 Descending Fort Worth Center
Mon 05:07:57 PM 33.5947 -102.7397 85° East 208 239 15,200 -637 Descending Fort Worth Center
Mon 05:08:51 PM 33.5992 -102.6825 85° East 203 234 14,700 -574 Descending Fort Worth Center
Mon 05:09:52 PM 33.6042 -102.6106 81° East 202 232 14,100 -590 Descending Fort Worth Center
Mon 05:10:53 PM 33.6131 -102.5464 78° East 202 232 13,500 -446 Descending Fort Worth Center
Mon 05:11:53 PM 33.6242 -102.4819 76° East 195 224 13,200 -496 Descending Fort Worth Center
Mon 05:12:54 PM 33.6369 -102.4181 75° East 197 227 12,500 -595 Descending Fort Worth Center
Mon 05:13:54 PM 33.6500 -102.3589 74° East 187 215 12,000 -744 Descending Fort Worth Center
Mon 05:14:55 PM 33.6625 -102.3047 76° East 175 201 11,000 -984 Descending Fort Worth Center
Mon 05:15:56 PM 33.6753 -102.2431 80° East 177 204 10,000 -843 Descending Fort Worth Center
Mon 05:16:56 PM 33.6836 -102.1861 79° East 173 199 9,300 -783 Descending Fort Worth Center
Mon 05:17:51 PM 33.6919 -102.1364 60° Northeast 167 192 8,500 -626 Descending Fort Worth Center
Mon 05:18:51 PM 33.7144 -102.0903 57° Northeast 171 197 8,100 -496 Descending Fort Worth Center
Mon 05:19:52 PM 33.7436 -102.0369 67° East 177 204 7,500 -590 Descending Fort Worth Center
Mon 05:20:53 PM 33.7622 -101.9831 82° East 179 206 6,900 -744 Descending Fort Worth Center
Mon 05:21:53 PM 33.7683 -101.9283 101° East 155 178 6,000 -843 Descending Fort Worth Center
Mon 05:22:54 PM 33.7617 -101.8856 120° Southeast 132 152 5,200 -724 Descending Fort Worth Center
Mon 05:23:49 PM 33.7481 -101.8572 142° Southeast 121 139 4,600 -522 Descending Fort Worth Center
Mon 05:24:49 PM 33.7258 -101.8361 174° South 107 123 4,200 -446 Descending Fort Worth Center
Mon 05:25:50 PM 33.6947 -101.8322 174° South 104 120 3,700 -492 Descending Fort Worth Center

Login

Don't have an account? Register now (free) for customized features, flight alerts, and more!